Terminal Aerodrome Forecast
Issued by NWS Brownsville, TX

Home | Current Version | Previous Version | Text Only | Print | Product List | Glossary On
Versions: 1 2 3 4 5 6 7 8 9 10 11 12 13 14 15 16 17
000
FTUS44 KBRO 271100
TAFBRO
TAF
KBRO 271120Z 2712/2812 30004KT P6SM SKC
     FM271500 04008KT P6SM VCSH SCT030 BKN040
      TEMPO 2716/2720 4SM -TSRA BKN035CB
     FM280200 06008KT P6SM SCT025
     FM280900 07010KT P6SM VCSH BKN025=

USA.gov is the U.S. government's official web portal to all federal, state and local government web resources and services.